Terminal Aerodrome Forecast
Issued by NWS Spokane, WA

Home | Current Version | Previous Version | Text Only | Print | Product List | Glossary On
Versions: 1 2 3 4 5 6 7 8 9 10 11 12 13 14 15 16 17 18 19 20 21 22 23 24 25 26
000
FTUS46 KOTX 172339
TAFGEG
TAF
KGEG 172339Z 1800/1824 08004KT P6SM -RA BKN035 OVC050
     FM180400 13004KT 6SM -RA BR SCT015 OVC025
     FM181100 19004KT 3SM -RA BR BKN004 OVC009
     FM181800 17006KT P6SM BKN009 OVC020
     FM182100 15006KT P6SM BKN020 OVC040=

USA.gov is the U.S. government's official web portal to all federal, state and local government web resources and services.